nirandfar.com alexa rank chart, nirandfar.com alexa rank daily changes

nirandfar.com alexa rank chart, nirandfar.com alexa rank daily changes

nirandfar.com
Actual rank:
205 719

RANK HISTORY

Date Rank Diff
2017/05/25 205 719 +1 597
2017/05/24 204 122 +222
2017/05/23 203 900 +3 999
2017/05/22 199 901 +1 686
2017/05/21 198 215 +6 391
2017/05/20 191 824 -154
2017/05/19 191 978 -4 763
2017/05/18 196 741 -10 721
2017/05/17 207 462 +24 133
2017/05/16 183 329 +3 840
2017/05/15 179 489 +309
2017/05/14 179 180 +2 289
2017/05/13 176 891 +4 963
2017/05/12 171 928 -5 445
2017/05/11 177 373 +1 724
2017/05/10 175 649 -643
2017/05/09 176 292 +1 622
2017/05/08 174 670 +583
2017/05/07 174 087 +1 576
2017/05/06 172 511 -2 651
2017/05/05 175 162 +5 341
2017/05/04 169 821 +4 630
2017/05/03 165 191 -68
2017/05/02 165 259 +533
2017/05/01 164 726 +7 735
2017/04/30 156 991 -1 587
2017/04/29 158 578 -1 166
2017/04/28 159 744 -5 817
2017/04/27 165 561 -6 415
2017/04/26 171 976 -668
2017/04/25 172 644 +294
2017/04/24 172 350 +1 661
2017/04/23 170 689 +1 301
2017/04/22 169 388 -386
2017/04/21 169 774 -2 612
2017/04/20 172 386 -1 570
2017/04/19 173 956 +2 744
2017/04/18 171 212 +1 021
2017/04/17 170 191 -25 429
2017/04/16 195 620 -3 978
2017/04/15 199 598 +3 477
2017/04/14 196 121 -4 668
2017/04/13 200 789 -7 560
2017/04/12 208 349 +5 405
2017/04/11 202 944 +1 575
2017/04/10 201 369 +8 472
2017/04/09 192 897 +204
2017/04/08 192 693 +773
2017/04/07 191 920 -1 353
2017/04/06 193 273 -2 849
2017/04/05 196 122 +39 439
2017/04/04 156 683 -3 638
2017/04/03 160 321 +3 697
2017/04/02 156 624 +4 936
2017/04/01 151 688 -5 236
2017/03/31 156 924 +2 282
2017/03/30 154 642 +2 432
2017/03/29 152 210 +298
2017/03/28 151 912 -1 355
2017/03/27 153 267 +1 232
2017/03/26 152 035

WIDGET FOR YOUR SITE

DOMAINS WITH THE NEAREST RANK

Domain Rank
lpzoo.org 205 714
aartedeensinareaprender.com 205 715
ugra-tv.ru 205 716
bongdacuocsong.net 205 717
actuariesindia.org 205 718
nirandfar.com 205 719
chile.travel 205 720
tvz.hr 205 721
humaan.com 205 722
alo.az 205 723
spacefem.com 205 724

DOMAINS WITH THE NEAREST RANK BY TLD .com

Domain Rank
xn--7ck4axdc4icb9102d7h1cd4yd.com 205 707
szrch.com 205 709
dixned.com 205 710
beds24.com 205 711
aartedeensinareaprender.com 205 715
nirandfar.com 205 719
humaan.com 205 722
spacefem.com 205 724
evertek.com 205 733
vinissimus.com 205 734
kogures.com 205 737